首页
METAR-TAF:

METAR-TAF

机场 :

普拉, 克罗地亚

纬度: 44-54N, 经度: 013-55E, 海拔: 63米

当前天气观测

该预报发布于15分钟前的10:30 UTC
风速11节,风向东转东北
温度 23°C
湿度 41%
气压 1029 hPa
能见度10公里或以上
1500米以下无云,无积雨云

METAR: LDPL 121030Z 07011KT CAVOK 23/09 Q1029 BECMG 07008KT

时间: 12:45 (10:45 UTC)

预报

该预报发布于5小时和20分钟前的05:25 UTC
预报有效从12日的 06点(UTC)到 13日的 06点(UTC)
风速12节,风向东转东北
能见度10公里或以上
1500米以下无云,无积雨云
成为
从 12日的 10点(UTC)到 12日的 12点(UTC)
风速7节,风向东转东北
成为
从 12日的 14点(UTC)到 12日的 16点(UTC)
风速8节,风向西
成为
从 12日的 16点(UTC)到 12日的 18点(UTC)
风速4节,风向北转西北
成为
从 12日的 20点(UTC)到 12日的 22点(UTC)
风速7节,风向东转东北

TAF: LDPL 120525Z 1206/1306 06012KT CAVOK TX25/1212Z TN14/1304Z BECMG 1210/1212 07007KT BECMG 1214/1216 28008KT BECMG 1216/1218 33004KT BECMG 1220/1222 06007KT

超过4000个机场的气象观测和天气预报(METAR&TAF报告)。

可查询的气象台以黄色和红色小点在地图上表示。

将鼠标移到小点上方,可查看气象台名称。

然后点击查看天气观测和预报。

如需切换地图:点击带黑十字的绿色按钮放大地图;点击带横线的绿色按钮缩小地图;或者点击绿色箭头查看邻近地区的地图。


METAR-TAF: